HDAM/JIB METAR and TAF weather

Enter ICAO airport designator
Station Type Date Time Source
HDAM METAR 2020/11/24 07:00 UTC NOAA

HDAM 240700Z 11009KT 9999 SCT023 31/23 Q1015


Station Type Date Time Source
HDAM Decoded METAR 2020/11/24 07:00 UTC NOAA

Djibouti \ Ambouli, Djibouti (HDAM) 11-33N 043-10E
Nov 24, 2020 - 02:00 AM EST / 2020.11.24 0700 UTC
Wind: from the ESE (110 degrees) at 10 MPH (9 KT):0
Visibility: greater than 7 mile(s):0
Sky conditions: partly cloudy
Temperature: 87 F (31 C)
Heat index: 93.9 F (34.4 C):1
Dew Point: 73 F (23 C)
Relative Humidity: 62%
Pressure (altimeter): 29.97 in. Hg (1015 hPa)
ob: HDAM 240700Z 11009KT 9999 SCT023 31/23 Q1015
cycle: 7

Station Type Date Time Source
HDAM TAF 2020/11/22 00:54 UTC NOAA

TAF TAF HDAM 212300Z 2200/2224 00000KT 9999 SCT020
BECMG 2206/2212 08010KT SCT023
BECMG 2215/2221 VRB05KT FEW020

Example: see airport list